Log in

NASDAQ:DORMDorman Products Institutional Ownership

$63.34
-1.34 (-2.07 %)
(As of 07/10/2020 04:00 PM ET)
Add
Compare
Today's Range
$62.41
Now: $63.34
$65.30
50-Day Range
$64.03
MA: $68.90
$79.56
52-Week Range
$44.49
Now: $63.34
$85.79
Volume102,400 shs
Average Volume209,912 shs
Market Capitalization$2.05 billion
P/E Ratio24.84
Dividend YieldN/A
Beta0.79

Institutional Ownership

Institutional Ownership Changes (13F Filings) for Dorman Products (NASDAQ:DORM)

Institutional Ownership Percentage: 78.60%

Institutional Buying and Selling by Quarter


Dorman Products (NASDAQ DORM) Institutional Buying and Selling

Reporting DateHedge FundShares HeldMarket Value% of PortfolioQuarterly Change in SharesOwnership in Company
7/8/2020Envestnet Asset Management Inc.102,084$6.85M0.0%-1.6%0.315%
7/8/2020Riverbridge Partners LLC248,714$16.68M0.3%-2.6%0.767%
6/19/2020State Street Corp885,914$48.96M0.0%+6.5%2.731%
6/16/2020Royal Bank of Canada393,169$21.73M0.0%+1.7%1.212%
5/28/2020State of Tennessee Treasury Department15,885$0.88M0.0%+37.9%0.049%
5/26/2020Morgan Stanley110,205$6.09M0.0%-30.2%0.340%
5/22/2020FDx Advisors Inc.20,898$0.12M0.0%N/A0.064%
5/18/2020Port Capital LLC292,045$16.14M2.2%+3.7%0.900%
5/18/2020Voloridge Investment Management LLC15,833$0.88M0.0%-61.3%0.049%
5/18/2020Zebra Capital Management LLC11,862$0.66M1.1%-9.4%0.037%
5/18/2020Advisor Group Holdings Inc.5,900$0.33M0.0%N/A0.018%
5/15/2020Permanens Capital L.P.2,825$0.16M0.0%-7.4%0.009%
5/15/2020Invesco Ltd.315,192$17.42M0.0%+8.6%0.972%
5/15/2020Morgan Stanley110,205$6.09M0.0%-30.2%0.340%
5/15/2020Parametrica Management Ltd3,832$0.21M0.2%N/A0.012%
5/15/2020Balyasny Asset Management LLC13,388$0.74M0.0%+29.2%0.041%
5/15/2020Thrivent Financial for Lutherans24,450$1.35M0.0%+5.3%0.075%
5/14/2020Eaton Vance Management268,381$14.83M0.0%-0.5%0.827%
5/14/2020Evercore Wealth Management LLC9,062$0.50M0.0%-30.3%0.028%
5/14/2020Wells Fargo & Company MN204,302$11.29M0.0%+2.7%0.630%
5/14/2020Geode Capital Management LLC440,844$24.37M0.0%+5.6%1.359%
5/14/2020Janus Henderson Group PLC525,119$29.02M0.0%-51.1%1.619%
5/14/2020Commonwealth of Pennsylvania Public School Empls Retrmt SYS14,678$0.81M0.0%+48.4%0.045%
5/14/2020Legal & General Group Plc89,800$4.96M0.0%+1.0%0.277%
5/14/2020Aviva PLC69,178$3.82M0.0%+163.1%0.213%
5/14/2020Deutsche Bank AG29,335$1.62M0.0%+15.7%0.090%
5/14/2020Alliancebernstein L.P.43,581$2.41M0.0%+1.9%0.134%
5/14/2020M&T Bank Corp6,764$0.37M0.0%+2.8%0.021%
5/14/2020Lord Abbett & CO. LLC572,893$31.66M0.1%-11.9%1.766%
5/14/2020Nuveen Asset Management LLC127,773$7.06M0.0%+11.6%0.394%
5/13/2020FDx Advisors Inc.20,898$0.12M0.0%N/A0.064%
5/13/2020Parametric Portfolio Associates LLC75,179$4.16M0.0%-10.6%0.232%
5/13/2020BNP Paribas Arbitrage SA11,599$0.64M0.0%+44.0%0.036%
5/13/2020Horizon Kinetics Asset Management LLC20,871$1.15M0.1%-2.8%0.064%
5/13/2020Dynamic Technology Lab Private Ltd4,801$0.27M0.1%N/A0.015%
5/13/2020US Bancorp DE17,752$0.98M0.0%+5.4%0.055%
5/12/2020Atlanta Capital Management Co. L L C667,478$36.89M0.2%-10.3%2.057%
5/12/2020New South Capital Management Inc.267,774$14.80M0.7%+6.1%0.825%
5/12/2020Citigroup Inc.18,582$1.03M0.0%-20.7%0.057%
5/12/2020Sowell Financial Services LLC1,098$61K0.0%+2,395.5%0.003%
5/12/2020Principal Financial Group Inc.221,336$12.23M0.0%-4.0%0.682%
5/12/2020Victory Capital Management Inc.5,712$0.32M0.0%-17.0%0.018%
5/12/2020Personal Capital Advisors Corp90,123$5M0.0%+9.2%0.278%
5/11/2020Ensign Peak Advisors Inc344,955$19.07M0.1%+5.9%1.063%
5/11/2020Bridge City Capital LLC36,744$2.03M1.0%+15.3%0.113%
5/11/2020GW&K Investment Management LLC467,055$25.82M0.5%+4.7%1.440%
5/11/2020State Street Corp885,914$48.96M0.0%+6.5%2.731%
5/11/2020WINTON GROUP Ltd7,882$0.44M0.0%N/A0.024%
5/11/2020Mutual of America Capital Management LLC1,287$71K0.0%+25.6%0.004%
5/8/2020Wrapmanager Inc.4,950$0.27M0.1%+5.1%0.015%
5/8/2020Trexquant Investment LP13,374$0.74M0.1%N/A0.041%
5/8/2020WCM Investment Management LLC127,995$7.07M0.0%+9.2%0.395%
5/8/2020Foundry Partners LLC15,818$0.87M0.0%-20.1%0.049%
5/8/2020PNC Financial Services Group Inc.17,221$0.95M0.0%-14.2%0.053%
5/8/2020Swiss National Bank54,000$2.99M0.0%+1.3%0.166%
5/8/2020Aigen Investment Management LP494$27K0.0%+1,166.7%0.002%
5/8/2020BRYN MAWR TRUST Co38,643$2.14M0.1%+2.2%0.119%
5/8/2020Oppenheimer Asset Management Inc.13,101$0.73M0.0%-1.8%0.040%
5/8/2020Wasatch Advisors Inc.212,315$11.74M0.1%-20.8%0.654%
5/7/2020Anchor Capital Advisors LLC687,553$38M1.1%-3.1%2.119%
5/7/2020Private Capital Group LLC885$49K0.0%+103.0%0.003%
5/6/2020Zurcher Kantonalbank Zurich Cantonalbank2,698$0.15M0.0%+55.6%0.008%
5/6/2020Russell Investments Group Ltd.31,285$1.73M0.0%-14.9%0.096%
5/6/2020Bank of New York Mellon Corp529,747$29.28M0.0%-10.3%1.633%
5/6/2020Rhumbline Advisers91,972$5.08M0.0%+0.4%0.284%
5/6/2020New York State Common Retirement Fund32,061$1.77M0.0%-50.9%0.099%
5/6/2020Intrust Bank NA4,137$0.23M0.1%-12.3%0.013%
5/5/2020Fifth Third Bancorp543$30K0.0%-43.8%0.002%
5/5/2020Arizona State Retirement System6,541$0.36M0.0%-66.4%0.020%
5/5/2020State Board of Administration of Florida Retirement System14,538$0.80M0.0%-1.8%0.045%
5/5/2020Aperio Group LLC11,484$0.64M0.0%-11.7%0.035%
5/4/2020American International Group Inc.18,753$1.04M0.0%-4.7%0.058%
5/4/2020Victory Capital Management Inc.5,712$0.32M0.0%-17.0%0.018%
5/2/2020Natixis Advisors L.P.20,615$1.14M0.0%+2.3%0.064%
5/2/2020SG Americas Securities LLC20,852$1.15M0.0%+165.1%0.064%
5/1/2020BlackRock Inc.4,156,279$229.72M0.0%-2.8%12.811%
5/1/2020Comerica Bank66,244$3.83M0.0%+10.6%0.204%
5/1/2020Icon Advisers Inc. Co.6,500$0.36M0.1%N/A0.020%
5/1/2020Public Employees Retirement Association of Colorado252,320$13.95M0.1%-0.4%0.778%
5/1/2020UBS Group AG38,673$2.14M0.0%-35.6%0.119%
4/30/2020Janney Montgomery Scott LLC28,963$1.60M0.0%+6.4%0.089%
4/29/2020Brinker Capital Inc.15,750$0.87M0.0%+7.3%0.049%
4/29/2020Dupont Capital Management Corp25,960$1.44M0.0%+5.2%0.080%
4/29/2020New York State Teachers Retirement System27,527$1.52M0.0%-6.8%0.085%
4/29/2020First National Bank of Omaha64,310$3.55M0.3%+5.0%0.198%
4/28/2020Pembroke Management LTD148,382$8.20M1.3%+15.3%0.457%
4/28/2020Sheets Smith Wealth Management4,834$0.27M0.1%+7.7%0.015%
4/27/2020Summit Creek Advisors LLC123,932$6.85M1.4%-0.5%0.382%
4/27/2020Texas Permanent School Fund24,777$1.37M0.0%+24.2%0.076%
4/24/2020Synovus Financial Corp2,191$0.11M0.0%-44.5%0.007%
4/24/2020Boston Trust Walden Corp337,765$18.67M0.3%+1.7%1.041%
4/23/2020Strs Ohio700$38K0.0%N/A0.002%
4/23/2020Envestnet Asset Management Inc.103,741$5.73M0.0%+7.5%0.320%
4/21/2020Raymond James & Associates54,729$3.03M0.0%-1.9%0.169%
4/21/2020First Hawaiian Bank5,075$0.28M0.0%-13.8%0.016%
4/21/2020Boston Trust Walden Corp393,633$21.76M0.3%+18.6%1.213%
4/21/2020Csenge Advisory Group27,992$1.55M0.4%-32.3%0.086%
4/20/2020Oregon Public Employees Retirement Fund11,662$0.65M0.0%-1.7%0.036%
4/20/2020Rowland Carmichael Advisors Inc. ADV3,995$0.22M0.1%-13.7%0.012%
4/20/2020Winslow Evans & Crocker Inc.2,596$0.14M0.0%+41.1%0.008%
(Data available from 1/1/2016 forward)
This page was last updated on 7/11/2020 by MarketBeat.com Staff

30 Days of MarketBeat All Access for $1.00

Sign up for MarketBeat All Access to gain access to MarketBeat's full suite of research tools:

  • Best-in-Class Portfolio Monitoring

    View the latest news, buy/sell ratings, SEC filings and insider transactions for your stocks. Compare your portfolio performance to leading indices and get personalized stock ideas based on your portfolio.

  • Stock Ideas and Recommendations

    Get daily stock ideas top-performing Wall Street analysts. Get short term trading ideas from the MarketBeat Idea Engine. View which stocks are hot on social media with MarketBeat's trending stocks report.

  • Advanced Stock Screeners and Research Tools

    Identify stocks that meet your criteria using seven unique stock screeners. See what's happening in the market right now with MarketBeat's real-time news feed. Export data to Excel for your own analysis.

Start Your Risk-Free Trial Subscription Here

Enter your email address below to receive a concise daily summary of analysts' upgrades, downgrades and new coverage with MarketBeat.com's FREE daily email newsletter.